Terminal Aerodrome Forecast
Issued by NWS Jackson, MS

Home | Current Version | Previous Version | Text Only | Print | Product List | Glossary On
Versions: 1 2 3 4 5 6 7 8 9 10 11 12 13 14 15 16
000
FTUS44 KJAN 270500
TAFGWO
TAF
KGWO 270540Z 2706/2806 15008KT P6SM VCSH BKN035 OVC060
     FM271000 14008KT P6SM -RA OVC030
     FM271200 15007KT 5SM -RA BR OVC015
     FM271900 16010KT 3SM -RA BR OVC007=

USA.gov is the U.S. government's official web portal to all federal, state and local government web resources and services.